Time,TemperatureF,DewpointF,PressureIn,WindDirection,WindDirectionDegrees,WindSpeedMPH,WindSpeedGustMPH,Humidity,HourlyPrecipIn,Conditions,Clouds,dailyrainin,SolarRadiationWatts/m^2,SoftwareType,DateUTC
2013-08-02 00:22:00,59.0,57.0,-100.00,North,356,4.0,22.0,93,0.07,,,0.12,0.000000,,2013-08-02 06:22:00,
2013-08-02 00:33:00,59.0,57.0,-100.00,North,356,4.0,22.0,93,0.07,,,0.12,0.000000,,2013-08-02 06:33:00,
2013-08-02 00:43:00,59.0,57.0,-100.00,North,356,4.0,22.0,93,0.07,,,0.12,0.000000,,2013-08-02 06:43:00,
2013-08-02 00:52:00,59.0,57.0,-100.00,North,356,4.0,22.0,93,0.07,,,0.12,0.000000,,2013-08-02 06:52:00,
2013-08-02 01:22:00,58.0,57.0,-100.00,SE,143,9.0,15.0,96,0.08,,,0.20,0.000000,,2013-08-02 07:22:00,
2013-08-02 01:33:00,58.0,57.0,-100.00,SE,143,9.0,15.0,96,0.08,,,0.20,0.000000,,2013-08-02 07:33:00,
2013-08-02 01:44:00,58.0,57.0,-100.00,SE,143,9.0,15.0,96,0.08,,,0.20,0.000000,,2013-08-02 07:44:00,
2013-08-02 01:53:00,58.0,57.0,-100.00,SE,143,9.0,15.0,96,0.08,,,0.20,0.000000,,2013-08-02 07:53:00,
2013-08-02 02:22:00,60.0,56.0,-100.00,East,89,10.0,20.0,87,0.00,,,0.20,0.000000,,2013-08-02 08:22:00,
2013-08-02 02:33:00,60.0,56.0,-100.00,East,89,10.0,20.0,87,0.00,,,0.20,0.000000,,2013-08-02 08:33:00,
2013-08-02 02:43:00,60.0,56.0,-100.00,East,89,10.0,20.0,87,0.00,,,0.20,0.000000,,2013-08-02 08:43:00,
2013-08-02 02:54:00,60.0,56.0,-100.00,East,89,10.0,20.0,87,0.00,,,0.20,0.000000,,2013-08-02 08:54:00,
2013-08-02 03:23:00,60.0,57.0,-100.00,East,80,7.0,16.0,89,0.00,,,0.20,0.000000,,2013-08-02 09:23:00,
2013-08-02 03:33:00,60.0,57.0,-100.00,East,80,7.0,16.0,89,0.00,,,0.20,0.000000,,2013-08-02 09:33:00,
2013-08-02 03:43:00,60.0,57.0,-100.00,East,80,7.0,16.0,89,0.00,,,0.20,0.000000,,2013-08-02 09:43:00,
2013-08-02 03:52:00,60.0,57.0,-100.00,East,80,7.0,16.0,89,0.00,,,0.20,0.000000,,2013-08-02 09:52:00,
2013-08-02 04:23:00,58.0,56.0,-100.00,ESE,109,1.0,12.0,94,0.00,,,0.20,0.000000,,2013-08-02 10:23:00,
2013-08-02 04:33:00,58.0,56.0,-100.00,ESE,109,1.0,12.0,94,0.00,,,0.20,0.000000,,2013-08-02 10:33:00,
2013-08-02 04:43:00,58.0,56.0,-100.00,ESE,109,1.0,12.0,94,0.00,,,0.20,0.000000,,2013-08-02 10:43:00,
2013-08-02 04:52:00,58.0,56.0,-100.00,ESE,109,1.0,12.0,94,0.00,,,0.20,0.000000,,2013-08-02 10:52:00,
2013-08-02 05:23:00,57.0,56.0,-100.00,WNW,290,1.0,3.0,98,0.00,,,0.20,0.000000,,2013-08-02 11:23:00,
2013-08-02 05:32:00,57.0,56.0,-100.00,WNW,290,1.0,3.0,98,0.00,,,0.20,0.000000,,2013-08-02 11:32:00,
2013-08-02 05:43:00,57.0,56.0,-100.00,WNW,290,1.0,3.0,98,0.00,,,0.20,0.000000,,2013-08-02 11:43:00,
2013-08-02 05:52:00,57.0,56.0,-100.00,WNW,290,1.0,3.0,98,0.00,,,0.20,0.000000,,2013-08-02 11:52:00,
2013-08-02 06:33:00,55.0,55.0,-100.00,ENE,68,0.0,3.0,99,0.00,,,0.20,0.000000,,2013-08-02 12:33:00,
2013-08-02 06:43:00,55.0,55.0,-100.00,ENE,68,0.0,3.0,99,0.00,,,0.20,0.000000,,2013-08-02 12:43:00,
2013-08-02 06:52:00,55.0,55.0,-100.00,ENE,68,0.0,3.0,99,0.00,,,0.20,0.000000,,2013-08-02 12:52:00,
2013-08-02 07:22:00,55.0,55.0,-100.00,ESE,107,3.0,6.0,99,0.00,,,0.20,10.000000,,2013-08-02 13:22:00,
2013-08-02 07:33:00,55.0,55.0,-100.00,ESE,107,3.0,6.0,99,0.00,,,0.20,10.000000,,2013-08-02 13:33:00,
2013-08-02 07:43:00,55.0,55.0,-100.00,ESE,107,3.0,6.0,99,0.00,,,0.20,10.000000,,2013-08-02 13:43:00,
2013-08-02 07:52:00,55.0,55.0,-100.00,ESE,107,3.0,6.0,99,0.00,,,0.20,10.000000,,2013-08-02 13:52:00,
2013-08-02 08:22:00,60.0,57.0,-100.00,ESE,116,3.0,6.0,91,-99.99,,,0.20,165.000000,,2013-08-02 14:22:00,
2013-08-02 08:32:00,60.0,57.0,-100.00,ESE,116,3.0,6.0,91,-99.99,,,0.20,165.000000,,2013-08-02 14:32:00,
2013-08-02 08:43:00,60.0,57.0,-100.00,ESE,116,3.0,6.0,91,-99.99,,,0.20,165.000000,,2013-08-02 14:43:00,
2013-08-02 08:53:00,60.0,57.0,-100.00,ESE,116,3.0,6.0,91,-99.99,,,0.20,165.000000,,2013-08-02 14:53:00,
2013-08-02 09:22:00,66.0,59.0,-100.00,SSE,168,2.0,6.0,78,0.00,,,-99.99,383.000000,,2013-08-02 15:22:00,
2013-08-02 09:32:00,66.0,59.0,-100.00,SSE,168,2.0,6.0,78,0.00,,,-99.99,383.000000,,2013-08-02 15:32:00,
2013-08-02 09:43:00,66.0,59.0,-100.00,SSE,168,2.0,6.0,78,0.00,,,-99.99,383.000000,,2013-08-02 15:43:00,
2013-08-02 09:52:00,66.0,59.0,-100.00,SSE,168,2.0,6.0,78,0.00,,,-99.99,383.000000,,2013-08-02 15:52:00,
2013-08-02 10:22:00,74.0,59.0,-100.00,SSW,207,1.0,5.0,60,0.00,,,-99.99,712.000000,,2013-08-02 16:22:00,
2013-08-02 10:32:00,74.0,59.0,-100.00,SSW,207,1.0,5.0,60,0.00,,,-99.99,712.000000,,2013-08-02 16:32:00,
2013-08-02 10:43:00,74.0,59.0,-100.00,SSW,207,1.0,5.0,60,0.00,,,-99.99,712.000000,,2013-08-02 16:43:00,
2013-08-02 10:52:00,74.0,59.0,-100.00,SSW,207,1.0,5.0,60,0.00,,,-99.99,712.000000,,2013-08-02 16:52:00,
2013-08-02 11:22:00,78.0,61.0,-100.00,NW,325,2.0,6.0,56,0.00,,,0.16,851.000000,,2013-08-02 17:22:00,
2013-08-02 11:35:00,78.0,61.0,-100.00,NW,325,2.0,6.0,56,0.00,,,0.16,851.000000,,2013-08-02 17:35:00,
2013-08-02 11:43:00,78.0,61.0,-100.00,NW,325,2.0,6.0,56,0.00,,,0.16,851.000000,,2013-08-02 17:43:00,
2013-08-02 11:52:00,78.0,61.0,-100.00,NW,325,2.0,6.0,56,0.00,,,0.16,851.000000,,2013-08-02 17:52:00,
2013-08-02 12:22:00,80.0,61.0,-100.00,North,353,3.0,5.0,52,0.00,,,0.16,981.000000,,2013-08-02 18:22:00,
2013-08-02 12:32:00,80.0,61.0,-100.00,North,353,3.0,5.0,52,0.00,,,0.16,981.000000,,2013-08-02 18:32:00,
2013-08-02 12:43:00,80.0,61.0,-100.00,North,353,3.0,5.0,52,0.00,,,0.16,981.000000,,2013-08-02 18:43:00,
2013-08-02 12:52:00,80.0,61.0,-100.00,North,353,3.0,5.0,52,0.00,,,0.16,981.000000,,2013-08-02 18:52:00,
2013-08-02 13:22:00,83.0,62.0,-100.00,NE,34,4.0,10.0,49,0.00,,,0.16,1169.000000,,2013-08-02 19:22:00,
2013-08-02 13:32:00,83.0,62.0,-100.00,NE,34,4.0,10.0,49,0.00,,,0.16,1169.000000,,2013-08-02 19:32:00,
2013-08-02 13:43:00,83.0,62.0,-100.00,NE,34,4.0,10.0,49,0.00,,,0.16,1169.000000,,2013-08-02 19:43:00,
2013-08-02 13:52:00,83.0,62.0,-100.00,NE,34,4.0,10.0,49,0.00,,,0.16,1169.000000,,2013-08-02 19:52:00,
2013-08-02 14:22:00,85.0,60.0,-100.00,North,354,5.0,10.0,43,0.00,,,0.15,1126.000000,,2013-08-02 20:22:00,
2013-08-02 14:32:00,85.0,60.0,-100.00,North,354,5.0,10.0,43,0.00,,,0.15,1126.000000,,2013-08-02 20:32:00,
2013-08-02 14:43:00,85.0,60.0,-100.00,North,354,5.0,10.0,43,0.00,,,0.15,1126.000000,,2013-08-02 20:43:00,
2013-08-02 14:52:00,85.0,60.0,-100.00,North,354,5.0,10.0,43,0.00,,,0.15,1126.000000,,2013-08-02 20:52:00,
2013-08-02 15:22:00,79.0,58.0,-100.00,NNW,337,8.0,12.0,48,0.00,,,0.15,631.000000,,2013-08-02 21:22:00,
2013-08-02 15:32:00,79.0,58.0,-100.00,NNW,337,8.0,12.0,48,0.00,,,0.15,631.000000,,2013-08-02 21:32:00,
2013-08-02 15:43:00,79.0,58.0,-100.00,NNW,337,8.0,12.0,48,0.00,,,0.15,631.000000,,2013-08-02 21:43:00,
2013-08-02 15:52:00,79.0,58.0,-100.00,NNW,337,8.0,12.0,48,0.00,,,0.15,631.000000,,2013-08-02 21:52:00,
2013-08-02 16:22:00,85.0,56.0,-100.00,NW,322,6.0,13.0,37,0.00,,,0.15,741.000000,,2013-08-02 22:22:00,
2013-08-02 16:32:00,85.0,56.0,-100.00,NW,322,6.0,13.0,37,0.00,,,0.15,741.000000,,2013-08-02 22:32:00,
2013-08-02 16:43:00,85.0,56.0,-100.00,NW,322,6.0,13.0,37,0.00,,,0.15,741.000000,,2013-08-02 22:43:00,
2013-08-02 16:52:00,85.0,56.0,-100.00,NW,322,6.0,13.0,37,0.00,,,0.15,741.000000,,2013-08-02 22:52:00,
2013-08-02 17:22:00,86.0,54.0,-100.00,NNW,341,5.0,19.0,33,0.00,,,0.15,803.000000,,2013-08-02 23:22:00,
2013-08-02 17:32:00,86.0,54.0,-100.00,NNW,341,5.0,19.0,33,0.00,,,0.15,803.000000,,2013-08-02 23:32:00,
2013-08-02 17:43:00,86.0,54.0,-100.00,NNW,341,5.0,19.0,33,0.00,,,0.15,803.000000,,2013-08-02 23:43:00,
2013-08-02 17:53:00,86.0,54.0,-100.00,NNW,341,5.0,19.0,33,0.00,,,0.15,803.000000,,2013-08-02 23:53:00,
2013-08-02 18:22:00,82.0,52.0,-100.00,NNW,330,5.0,12.0,35,0.00,,,0.15,447.000000,,2013-08-03 00:22:00,
2013-08-02 18:33:00,82.0,52.0,-100.00,NNW,330,5.0,12.0,35,0.00,,,0.15,447.000000,,2013-08-03 00:33:00,
2013-08-02 18:43:00,82.0,52.0,-100.00,NNW,330,5.0,12.0,35,0.00,,,0.15,447.000000,,2013-08-03 00:43:00,
2013-08-02 18:52:00,82.0,52.0,-100.00,NNW,330,5.0,12.0,35,0.00,,,0.15,447.000000,,2013-08-03 00:52:00,
2013-08-02 19:22:00,81.0,52.0,-100.00,NW,312,3.0,9.0,37,0.00,,,0.15,203.000000,,2013-08-03 01:22:00,
2013-08-02 19:32:00,81.0,52.0,-100.00,NW,312,3.0,9.0,37,0.00,,,0.15,203.000000,,2013-08-03 01:32:00,
2013-08-02 19:42:00,81.0,52.0,-100.00,NW,312,3.0,9.0,37,0.00,,,0.15,203.000000,,2013-08-03 01:42:00,
2013-08-02 19:53:00,81.0,52.0,-100.00,NW,312,3.0,9.0,37,0.00,,,0.15,203.000000,,2013-08-03 01:53:00,
2013-08-02 20:22:00,78.0,57.0,-100.00,WNW,301,1.0,4.0,49,0.00,,,0.15,87.000000,,2013-08-03 02:22:00,
2013-08-02 20:32:00,78.0,57.0,-100.00,WNW,301,1.0,4.0,49,0.00,,,0.15,87.000000,,2013-08-03 02:32:00,
2013-08-02 20:43:00,78.0,57.0,-100.00,WNW,301,1.0,4.0,49,0.00,,,0.15,87.000000,,2013-08-03 02:43:00,
2013-08-02 20:52:00,78.0,57.0,-100.00,WNW,301,1.0,4.0,49,0.00,,,0.15,87.000000,,2013-08-03 02:52:00,
2013-08-02 21:22:00,76.0,52.0,-100.00,WNW,294,1.0,2.0,44,0.00,,,0.15,8.000000,,2013-08-03 03:22:00,
2013-08-02 21:32:00,76.0,52.0,-100.00,WNW,294,1.0,2.0,44,0.00,,,0.15,8.000000,,2013-08-03 03:32:00,
2013-08-02 21:43:00,76.0,52.0,-100.00,WNW,294,1.0,2.0,44,0.00,,,0.15,8.000000,,2013-08-03 03:43:00,
2013-08-02 21:53:00,76.0,52.0,-100.00,WNW,294,1.0,2.0,44,0.00,,,0.15,8.000000,,2013-08-03 03:53:00,
2013-08-02 22:22:00,71.0,55.0,-100.00,East,89,4.0,7.0,58,0.00,,,0.15,0.000000,,2013-08-03 04:22:00,
2013-08-02 22:32:00,71.0,55.0,-100.00,East,89,4.0,7.0,58,0.00,,,0.15,0.000000,,2013-08-03 04:32:00,
2013-08-02 22:43:00,71.0,55.0,-100.00,East,89,4.0,7.0,58,0.00,,,0.15,0.000000,,2013-08-03 04:43:00,
2013-08-02 22:53:00,71.0,55.0,-100.00,East,89,4.0,7.0,58,0.00,,,0.15,0.000000,,2013-08-03 04:53:00,
2013-08-02 23:22:00,71.0,56.0,-100.00,East,84,6.0,9.0,60,0.00,,,0.15,0.000000,,2013-08-03 05:22:00,
2013-08-02 23:32:00,71.0,56.0,-100.00,East,84,6.0,9.0,60,0.00,,,0.15,0.000000,,2013-08-03 05:32:00,
2013-08-02 23:42:00,71.0,56.0,-100.00,East,84,6.0,9.0,60,0.00,,,0.15,0.000000,,2013-08-03 05:42:00,
2013-08-02 23:52:00,71.0,56.0,-100.00,East,84,6.0,9.0,60,0.00,,,0.15,0.000000,,2013-08-03 05:52:00,